Time;durP1;ratioP1;P1;durP2;ratioP2;P2;SDS_P1;SDS_P2;PMS_P1;PMS_P2;Temp;Humidity;BMP_temperature;BMP_pressure;BME280_temperature;BME280_humidity;BME280_pressure;Samples;Min_cycle;Max_cycle;Signal;HPM_P1;HPM_P2
2022/06/26 00:01:34;;;;;;;8.05;4.40;;;19.60;99.90;;;;;;5076718;28;20184;-84
2022/06/26 00:04:00;;;;;;;5.27;4.73;;;19.50;99.90;;;;;;5077547;28;20330;-85
2022/06/26 00:06:26;;;;;;;4.97;4.10;;;19.80;99.90;;;;;;5076925;28;20184;-84
2022/06/26 00:08:52;;;;;;;9.33;4.83;;;19.70;99.90;;;;;;5076424;28;20169;-83
2022/06/26 00:11:17;;;;;;;8.87;5.20;;;19.60;99.90;;;;;;5075958;28;20169;-86
2022/06/26 00:13:43;;;;;;;7.67;4.50;;;19.60;99.90;;;;;;5076529;28;20223;-85
2022/06/26 00:16:09;;;;;;;7.40;4.50;;;19.50;99.90;;;;;;5077449;28;20181;-84
2022/06/26 00:18:35;;;;;;;5.13;4.63;;;19.40;99.90;;;;;;5076657;28;20635;-86
2022/06/26 00:21:01;;;;;;;6.95;4.80;;;19.30;99.90;;;;;;5076044;28;20208;-85
2022/06/26 00:23:27;;;;;;;7.93;5.23;;;19.40;99.90;;;;;;5076669;28;20200;-84
2022/06/26 00:25:52;;;;;;;7.07;5.27;;;19.20;99.90;;;;;;5075933;28;20621;-84
2022/06/26 00:28:18;;;;;;;8.23;5.97;;;19.20;99.90;;;;;;5075963;28;20540;-86
2022/06/26 00:30:44;;;;;;;10.97;5.93;;;19.20;99.90;;;;;;5076475;28;20556;-85
2022/06/26 00:33:09;;;;;;;7.67;6.00;;;19.30;99.90;;;;;;5075697;28;20200;-82
2022/06/26 00:35:35;;;;;;;7.17;5.30;;;19.20;99.90;;;;;;5076047;28;20183;-84
2022/06/26 00:38:01;;;;;;;6.17;5.27;;;19.40;99.90;;;;;;5076000;28;20184;-86
2022/06/26 00:40:26;;;;;;;5.63;4.87;;;19.40;99.90;;;;;;5077137;28;20200;-84
2022/06/26 00:42:52;;;;;;;7.03;4.73;;;19.50;99.90;;;;;;5074463;28;20197;-81
2022/06/26 00:45:17;;;;;;;9.37;5.43;;;19.30;99.90;;;;;;5074747;28;20206;-85
2022/06/26 00:47:43;;;;;;;6.57;4.73;;;19.40;99.90;;;;;;5074879;28;20208;-84
2022/06/26 00:50:09;;;;;;;6.30;4.77;;;19.40;99.90;;;;;;5075384;28;20176;-86
2022/06/26 00:52:37;;;;;;;10.07;4.57;;;19.50;99.90;;;;;;5075053;28;20204;-86
2022/06/26 00:55:03;;;;;;;9.23;4.90;;;19.60;99.90;;;;;;5075418;28;20177;-85
2022/06/26 00:57:30;;;;;;;6.63;4.43;;;19.60;99.90;;;;;;5075549;28;20208;-84
2022/06/26 00:59:56;;;;;;;5.10;4.57;;;19.60;99.90;;;;;;5075162;28;20622;-85
2022/06/26 01:02:22;;;;;;;5.90;4.13;;;19.60;99.90;;;;;;5075101;28;20207;-84
2022/06/26 01:04:48;;;;;;;7.13;4.70;;;19.50;99.90;;;;;;5075878;28;20175;-83
2022/06/26 01:07:14;;;;;;;7.23;4.40;;;19.60;99.90;;;;;;5075044;28;20642;-84
2022/06/26 01:09:41;;;;;;;8.70;4.33;;;19.50;99.90;;;;;;5074987;28;20877;-85
2022/06/26 01:12:07;;;;;;;6.07;4.30;;;19.60;99.90;;;;;;5074082;28;20192;-82
2022/06/26 01:14:33;;;;;;;5.87;4.03;;;19.70;99.90;;;;;;5075047;28;20234;-85
2022/06/26 01:17:01;;;;;;;8.67;4.30;;;19.40;99.90;;;;;;5075676;28;20184;-84
2022/06/26 01:19:27;;;;;;;5.03;4.10;;;19.40;99.90;;;;;;5074268;28;20222;-86
2022/06/26 01:21:53;;;;;;;5.60;3.87;;;19.60;99.90;;;;;;5073890;28;20173;-85
2022/06/26 01:24:18;;;;;;;4.37;3.97;;;20.20;99.90;;;;;;5073759;28;20185;-82
2022/06/26 01:26:44;;;;;;;5.20;3.53;;;20.30;99.90;;;;;;5074685;28;20173;-85
2022/06/26 01:29:10;;;;;;;4.80;3.60;;;20.30;99.90;;;;;;5074509;28;20341;-85
2022/06/26 01:31:36;;;;;;;3.90;3.57;;;20.30;99.90;;;;;;5074881;28;20267;-84
2022/06/26 01:34:09;;;;;;;6.93;3.40;;;20.40;99.90;;;;;;5075048;28;20208;-84
2022/06/26 01:36:36;;;;;;;9.07;3.33;;;20.40;99.90;;;;;;5074673;28;20177;-84
2022/06/26 01:39:03;;;;;;;4.10;3.30;;;20.40;99.90;;;;;;5073870;28;20184;-84
2022/06/26 01:41:28;;;;;;;4.73;3.57;;;20.40;99.90;;;;;;5073959;28;20205;-82
2022/06/26 01:43:54;;;;;;;6.00;3.87;;;20.40;99.90;;;;;;5074138;28;20196;-84
2022/06/26 01:46:22;;;;;;;5.10;3.97;;;20.40;99.90;;;;;;5073824;28;20172;-84
2022/06/26 01:48:48;;;;;;;4.77;3.70;;;20.30;99.90;;;;;;5074581;28;20198;-81
2022/06/26 01:51:14;;;;;;;6.00;4.30;;;20.20;99.90;;;;;;5073811;28;20633;-83
2022/06/26 01:53:39;;;;;;;7.60;4.40;;;20.10;99.90;;;;;;5073733;28;20250;-85
2022/06/26 01:56:06;;;;;;;4.53;4.07;;;20.10;99.90;;;;;;5073514;28;20591;-84
2022/06/26 01:58:33;;;;;;;10.65;4.30;;;20.00;99.90;;;;;;5073799;28;20177;-84
2022/06/26 02:00:59;;;;;;;6.37;4.00;;;19.90;99.90;;;;;;5073005;28;20273;-85
2022/06/26 02:03:26;;;;;;;8.93;4.67;;;19.90;99.90;;;;;;5074274;28;20208;-85
2022/06/26 02:05:52;;;;;;;10.87;4.30;;;19.90;99.90;;;;;;5072543;28;20171;-84
2022/06/26 02:08:18;;;;;;;9.50;4.60;;;19.90;99.90;;;;;;5073002;28;20259;-85
2022/06/26 02:13:42;;;;;;;8.13;4.77;;;19.90;99.90;;;;;;5074094;28;20269;-86
2022/06/26 02:16:14;;;;;;;6.33;4.60;;;19.80;99.90;;;;;;5072851;28;20176;-85
2022/06/26 02:18:41;;;;;;;7.43;5.00;;;19.80;99.90;;;;;;5072840;28;20172;-85
2022/06/26 02:21:09;;;;;;;4.63;4.13;;;19.80;99.90;;;;;;5073066;28;20207;-82
2022/06/26 02:23:36;;;;;;;7.33;4.20;;;19.90;99.90;;;;;;5075747;28;20241;-82
2022/06/26 02:26:04;;;;;;;5.17;4.50;;;20.00;99.90;;;;;;5077678;28;20625;-84
2022/06/26 02:28:30;;;;;;;7.77;4.37;;;20.10;99.90;;;;;;5077709;28;20172;-83
2022/06/26 02:30:56;;;;;;;6.88;4.18;;;20.00;99.90;;;;;;5077418;28;20222;-84
2022/06/26 02:33:22;;;;;;;7.73;4.50;;;19.90;99.90;;;;;;5077318;28;20289;-84
2022/06/26 02:35:49;;;;;;;7.75;4.45;;;19.80;99.90;;;;;;5078079;28;20643;-83
2022/06/26 02:38:15;;;;;;;9.95;4.85;;;19.80;99.90;;;;;;5078615;28;20181;-84
2022/06/26 02:40:41;;;;;;;8.47;4.40;;;19.80;99.90;;;;;;5076861;28;20208;-83
2022/06/26 02:43:07;;;;;;;6.63;4.75;;;19.80;99.90;;;;;;5075956;28;20197;-81
2022/06/26 02:45:32;;;;;;;6.35;4.70;;;19.80;99.90;;;;;;5076061;28;20181;-81
2022/06/26 02:47:58;;;;;;;8.23;5.03;;;19.80;99.90;;;;;;5074589;28;20173;-81
2022/06/26 02:50:24;;;;;;;10.60;5.07;;;19.70;99.90;;;;;;5074527;28;20204;-82
2022/06/26 02:52:49;;;;;;;8.90;5.53;;;19.90;99.90;;;;;;5074673;28;20205;-81
2022/06/26 02:55:15;;;;;;;12.13;5.30;;;19.80;99.90;;;;;;5074991;28;20272;-81
2022/06/26 02:57:41;;;;;;;6.00;5.40;;;19.80;99.90;;;;;;5076121;28;20180;-80
2022/06/26 03:00:08;;;;;;;9.57;6.23;;;19.60;99.90;;;;;;5075156;28;20311;-82
2022/06/26 03:02:34;;;;;;;8.57;6.83;;;19.50;99.90;;;;;;5075073;28;20200;-82
2022/06/26 03:05:00;;;;;;;8.03;6.57;;;19.60;99.90;;;;;;5075258;28;20222;-81
2022/06/26 03:07:25;;;;;;;11.37;7.47;;;19.70;99.90;;;;;;5074839;28;20200;-81
2022/06/26 03:09:51;;;;;;;10.00;6.67;;;19.60;99.90;;;;;;5074915;28;20176;-81
2022/06/26 03:12:16;;;;;;;11.77;6.97;;;19.60;99.90;;;;;;5074701;28;20235;-81
2022/06/26 03:14:42;;;;;;;8.43;7.07;;;19.50;99.90;;;;;;5074613;28;20211;-81
2022/06/26 03:17:08;;;;;;;14.80;7.40;;;19.50;99.90;;;;;;5075025;28;20309;-81
2022/06/26 03:19:33;;;;;;;13.70;7.40;;;19.50;99.90;;;;;;5074460;28;20275;-83
2022/06/26 03:21:59;;;;;;;10.13;7.37;;;19.30;99.90;;;;;;5074166;28;20612;-83
2022/06/26 03:24:25;;;;;;;8.53;7.37;;;19.30;99.90;;;;;;5074094;28;20575;-82
2022/06/26 03:26:50;;;;;;;10.13;7.53;;;19.30;99.90;;;;;;5074527;28;20255;-82
2022/06/26 03:29:17;;;;;;;16.13;7.63;;;19.40;99.90;;;;;;5073693;28;20230;-83
2022/06/26 03:31:42;;;;;;;13.10;7.70;;;19.20;99.90;;;;;;5073785;28;20176;-83
2022/06/26 03:34:08;;;;;;;11.80;7.80;;;19.20;99.90;;;;;;5073316;28;20173;-82
2022/06/26 03:36:34;;;;;;;12.33;7.57;;;19.10;99.90;;;;;;5073474;28;20595;-84
2022/06/26 03:39:00;;;;;;;10.17;6.87;;;19.20;99.90;;;;;;5073911;28;20679;-82
2022/06/26 03:41:26;;;;;;;11.17;8.10;;;19.20;99.90;;;;;;5073538;28;20204;-82
2022/06/26 03:43:52;;;;;;;11.33;7.90;;;19.10;99.90;;;;;;5077429;28;20192;-83
2022/06/26 03:46:18;;;;;;;15.03;9.10;;;19.10;99.90;;;;;;5077610;28;20173;-84
2022/06/26 03:48:44;;;;;;;13.63;9.07;;;19.00;99.90;;;;;;5079427;28;20253;-83
2022/06/26 03:51:10;;;;;;;11.17;9.63;;;18.90;99.90;;;;;;5077424;28;20187;-84
2022/06/26 03:53:36;;;;;;;13.13;9.60;;;19.00;99.90;;;;;;5077423;28;20196;-82
2022/06/26 03:56:03;;;;;;;12.17;9.30;;;19.10;99.90;;;;;;5078237;28;20222;-83
2022/06/26 03:58:28;;;;;;;11.57;9.03;;;19.10;99.90;;;;;;5077627;28;20183;-84
2022/06/26 04:00:54;;;;;;;15.20;9.03;;;19.20;99.90;;;;;;5076991;28;20582;-84
2022/06/26 04:03:20;;;;;;;10.97;9.07;;;19.20;99.90;;;;;;5078033;28;20238;-82
2022/06/26 04:05:46;;;;;;;13.63;9.00;;;19.20;99.90;;;;;;5078208;28;20173;-84
2022/06/26 04:08:12;;;;;;;14.83;9.27;;;19.00;99.90;;;;;;5078368;28;20264;-82
2022/06/26 04:10:39;;;;;;;15.40;8.43;;;19.10;99.90;;;;;;5077946;28;20185;-84
2022/06/26 04:13:06;;;;;;;11.80;9.10;;;19.10;99.90;;;;;;5077640;28;20199;-83
2022/06/26 04:15:33;;;;;;;10.87;8.70;;;19.10;99.90;;;;;;5078320;28;20799;-84
2022/06/26 04:17:59;;;;;;;9.57;8.53;;;19.00;99.90;;;;;;5077649;28;20180;-84
2022/06/26 04:20:26;;;;;;;9.50;8.17;;;19.00;99.90;;;;;;5078269;28;20193;-81
2022/06/26 04:22:56;;;;;;;11.43;8.00;;;19.00;99.90;;;;;;5078552;28;20254;-86
2022/06/26 04:25:22;;;;;;;8.60;7.70;;;19.00;99.90;;;;;;5077749;28;20264;-83
2022/06/26 04:27:48;;;;;;;13.57;9.17;;;19.00;99.90;;;;;;5078035;28;20176;-83
2022/06/26 04:30:14;;;;;;;10.53;8.57;;;18.90;99.90;;;;;;5077364;28;20186;-82
2022/06/26 04:32:40;;;;;;;10.03;8.37;;;18.90;99.90;;;;;;5077185;28;20280;-82
2022/06/26 04:35:06;;;;;;;12.83;8.93;;;18.90;99.90;;;;;;5077545;28;20687;-83
2022/06/26 04:37:31;;;;;;;11.37;8.37;;;18.90;99.90;;;;;;5077306;28;20183;-85
2022/06/26 04:39:57;;;;;;;17.40;9.37;;;18.80;99.90;;;;;;5077613;28;20196;-83
2022/06/26 04:42:22;;;;;;;12.83;8.70;;;18.80;99.90;;;;;;5076700;28;20196;-82
2022/06/26 04:44:48;;;;;;;9.63;7.50;;;19.10;99.90;;;;;;5076772;28;20172;-84
2022/06/26 04:47:14;;;;;;;12.20;8.20;;;19.00;99.90;;;;;;5075423;28;20169;-83
2022/06/26 04:49:39;;;;;;;9.50;7.30;;;19.00;99.90;;;;;;5075027;28;20188;-82
2022/06/26 04:52:05;;;;;;;11.97;9.10;;;19.00;99.90;;;;;;5072593;28;20192;-83
2022/06/26 04:54:31;;;;;;;17.10;9.83;;;18.90;99.90;;;;;;5072704;28;20660;-84
2022/06/26 04:56:56;;;;;;;15.80;9.70;;;18.80;99.90;;;;;;5072655;28;20219;-82
2022/06/26 04:59:22;;;;;;;15.43;9.10;;;18.90;99.90;;;;;;5072975;28;20172;-83
2022/06/26 05:01:47;;;;;;;11.00;8.60;;;19.10;99.90;;;;;;5072906;28;20172;-83
2022/06/26 05:04:13;;;;;;;12.77;8.63;;;19.60;99.90;;;;;;5072594;28;20172;-83
2022/06/26 05:06:39;;;;;;;9.87;7.67;;;19.60;99.90;;;;;;5073051;28;20173;-85
2022/06/26 05:09:04;;;;;;;12.30;7.93;;;19.60;99.90;;;;;;5073023;28;20169;-83
2022/06/26 05:11:30;;;;;;;11.73;7.53;;;19.80;99.90;;;;;;5072506;28;20405;-81
2022/06/26 05:13:56;;;;;;;9.70;7.57;;;20.00;99.90;;;;;;5077906;28;20192;-84
2022/06/26 05:16:21;;;;;;;9.10;7.20;;;20.00;99.90;;;;;;5073069;28;20172;-82
2022/06/26 05:18:48;;;;;;;8.48;7.47;;;20.20;99.90;;;;;;5072241;28;20177;-81
2022/06/26 05:21:13;;;;;;;10.65;7.97;;;20.30;99.90;;;;;;5071805;28;20211;-82
2022/06/26 05:23:39;;;;;;;8.52;6.32;;;20.30;99.90;;;;;;5071915;28;20185;-83
2022/06/26 05:26:06;;;;;;;7.95;6.43;;;20.60;99.90;;;;;;5071976;28;20173;-81
2022/06/26 05:28:32;;;;;;;6.65;5.80;;;20.60;99.90;;;;;;5071464;28;20543;-82
2022/06/26 05:30:58;;;;;;;6.97;5.60;;;20.90;99.90;;;;;;5071898;28;20263;-82
2022/06/26 05:33:24;;;;;;;8.80;5.90;;;21.00;99.90;;;;;;5071801;28;20677;-82
2022/06/26 05:35:49;;;;;;;6.13;5.40;;;21.00;99.90;;;;;;5072836;28;20176;-83
2022/06/26 05:38:15;;;;;;;6.70;5.45;;;20.40;99.90;;;;;;5072342;28;20172;-83
2022/06/26 05:40:41;;;;;;;7.22;5.97;;;20.30;99.90;;;;;;5071661;28;20200;-83
2022/06/26 05:43:06;;;;;;;8.10;5.30;;;20.50;99.90;;;;;;5072556;28;20559;-84
2022/06/26 05:45:32;;;;;;;8.35;4.40;;;21.00;99.90;;;;;;5072786;28;20226;-84
2022/06/26 05:47:57;;;;;;;8.88;5.15;;;21.30;99.90;;;;;;5072898;28;20234;-83
2022/06/26 05:50:23;;;;;;;5.28;4.65;;;21.40;99.90;;;;;;5073607;28;20161;-85
2022/06/26 05:52:49;;;;;;;5.50;4.78;;;21.30;99.90;;;;;;5072458;28;20192;-84
2022/06/26 05:55:15;;;;;;;6.05;4.43;;;21.30;99.90;;;;;;5072915;28;20230;-85
2022/06/26 05:57:41;;;;;;;5.78;3.95;;;21.70;99.90;;;;;;5072432;28;20276;-83
2022/06/26 06:00:08;;;;;;;4.18;3.47;;;22.00;99.90;;;;;;5072692;28;20666;-83
2022/06/26 06:02:34;;;;;;;4.07;3.22;;;22.00;99.90;;;;;;5072061;28;20279;-82
2022/06/26 06:04:59;;;;;;;2.90;2.60;;;22.40;99.90;;;;;;5072722;28;20200;-85
2022/06/26 06:07:25;;;;;;;3.22;2.92;;;22.70;99.90;;;;;;5073121;28;20536;-84
2022/06/26 06:09:50;;;;;;;4.72;3.10;;;22.80;99.90;;;;;;5072600;28;20192;-82
2022/06/26 06:12:16;;;;;;;4.28;3.28;;;22.40;99.90;;;;;;5072073;28;20189;-83
2022/06/26 06:14:42;;;;;;;3.75;2.80;;;22.50;99.90;;;;;;5072501;28;20183;-83
2022/06/26 06:19:52;;;;;;;3.97;3.00;;;23.00;99.90;;;;;;5073846;28;20612;-83
2022/06/26 06:22:17;;;;;;;2.90;2.65;;;23.50;99.90;;;;;;5071816;28;20185;-84
2022/06/26 06:24:43;;;;;;;3.25;2.83;;;23.90;99.90;;;;;;5071929;28;20177;-83
2022/06/26 06:27:09;;;;;;;3.90;2.75;;;23.90;99.90;;;;;;5072529;28;20255;-83
2022/06/26 06:29:34;;;;;;;3.03;2.83;;;23.80;99.90;;;;;;5072049;28;20219;-84
2022/06/26 06:32:00;;;;;;;5.13;2.97;;;24.00;99.90;;;;;;5072376;28;20185;-83
2022/06/26 06:34:26;;;;;;;3.63;2.53;;;23.70;99.90;;;;;;5072307;28;20161;-85
2022/06/26 06:36:52;;;;;;;2.90;2.70;;;24.20;99.90;;;;;;5072716;28;20168;-85
2022/06/26 06:39:18;;;;;;;4.20;2.83;;;23.70;99.90;;;;;;5073003;28;20537;-82
2022/06/26 06:41:43;;;;;;;3.40;3.10;;;23.50;99.90;;;;;;5073111;28;20588;-83
2022/06/26 06:44:09;;;;;;;4.15;3.17;;;23.30;99.90;;;;;;5071590;28;20169;-82
2022/06/26 06:46:35;;;;;;;3.58;3.28;;;22.90;99.90;;;;;;5070584;28;20252;-84
2022/06/26 06:49:01;;;;;;;3.92;3.63;;;22.80;99.90;;;;;;5071052;28;20192;-83
2022/06/26 06:51:26;;;;;;;5.28;4.07;;;22.80;99.90;;;;;;5070801;28;20200;-83
2022/06/26 06:53:52;;;;;;;4.30;3.80;;;22.60;99.90;;;;;;5071020;28;20688;-82
2022/06/26 06:56:18;;;;;;;7.57;4.63;;;22.40;99.90;;;;;;5071212;28;20173;-82
2022/06/26 06:58:43;;;;;;;8.15;7.35;;;22.20;99.90;;;;;;5071492;28;20177;-83
2022/06/26 07:01:09;;;;;;;7.25;4.88;;;21.90;99.90;;;;;;5071114;28;20204;-81
2022/06/26 07:03:35;;;;;;;7.47;6.47;;;22.10;99.90;;;;;;5071871;28;20292;-84
2022/06/26 07:06:00;;;;;;;8.10;6.85;;;22.40;99.90;;;;;;5072126;28;20173;-81
2022/06/26 07:08:26;;;;;;;12.18;8.75;;;22.30;99.90;;;;;;5072243;28;20164;-82
2022/06/26 07:10:52;;;;;;;10.25;8.90;;;22.20;99.90;;;;;;5073891;28;20271;-82
2022/06/26 07:13:17;;;;;;;11.48;9.25;;;22.40;99.90;;;;;;5074710;28;20189;-82
2022/06/26 07:15:43;;;;;;;10.48;9.45;;;22.80;99.90;;;;;;5074875;28;20173;-82
2022/06/26 07:18:08;;;;;;;12.93;9.75;;;22.60;99.90;;;;;;5074508;28;20176;-81
2022/06/26 07:20:34;;;;;;;13.32;9.68;;;22.20;99.90;;;;;;5094669;22;20282;-87
2022/06/26 07:22:59;;;;;;;16.05;10.70;;;22.20;99.90;;;;;;5072131;28;20173;-87
2022/06/26 07:25:25;;;;;;;15.20;10.38;;;22.10;99.90;;;;;;5073258;28;20194;-87
2022/06/26 07:27:51;;;;;;;11.52;9.68;;;21.80;99.90;;;;;;5074889;28;20218;-87
2022/06/26 07:30:17;;;;;;;12.13;9.73;;;21.60;99.90;;;;;;5073272;28;20177;-86
2022/06/26 07:32:44;;;;;;;13.27;10.25;;;22.20;99.90;;;;;;5073897;28;20165;-86
2022/06/26 07:35:10;;;;;;;13.65;9.15;;;23.30;99.90;;;;;;5073284;28;20177;-87
2022/06/26 07:37:35;;;;;;;10.90;9.43;;;23.40;99.90;;;;;;5074654;28;20258;-87
2022/06/26 07:40:01;;;;;;;14.68;10.00;;;23.60;99.90;;;;;;5073561;28;20212;-86
2022/06/26 07:42:26;;;;;;;12.45;9.65;;;23.60;99.90;;;;;;5073781;28;20180;-87
2022/06/26 07:44:52;;;;;;;13.90;10.93;;;23.30;99.90;;;;;;5074268;28;20179;-87
2022/06/26 07:47:17;;;;;;;12.13;10.27;;;22.80;99.90;;;;;;5071608;28;20199;-86
2022/06/26 07:49:43;;;;;;;11.50;9.98;;;22.90;99.90;;;;;;5074073;28;20180;-87
2022/06/26 07:52:08;;;;;;;12.13;10.20;;;23.20;99.90;;;;;;5073717;28;20172;-86
2022/06/26 07:54:34;;;;;;;12.48;10.18;;;23.60;99.90;;;;;;5074043;28;20176;-87
2022/06/26 07:56:59;;;;;;;12.88;9.70;;;23.10;99.90;;;;;;5072920;28;20698;-87
2022/06/26 07:59:25;;;;;;;10.63;7.80;;;23.20;99.90;;;;;;5073684;28;20169;-87
2022/06/26 08:01:50;;;;;;;10.60;8.13;;;22.70;99.90;;;;;;5071332;28;20173;-87
2022/06/26 08:04:16;;;;;;;10.88;8.40;;;22.50;99.90;;;;;;5073267;28;20256;-87
2022/06/26 08:06:42;;;;;;;9.88;7.35;;;22.50;99.90;;;;;;5071904;28;20200;-87
2022/06/26 08:09:08;;;;;;;9.10;6.97;;;22.50;99.90;;;;;;5071783;28;20168;-87
2022/06/26 08:11:34;;;;;;;11.25;6.88;;;22.80;99.90;;;;;;5073172;28;20165;-87
2022/06/26 08:13:59;;;;;;;7.22;6.35;;;22.70;99.90;;;;;;5073722;28;20173;-87
2022/06/26 08:16:25;;;;;;;10.75;7.18;;;23.10;99.90;;;;;;5072361;28;20192;-86
2022/06/26 08:18:51;;;;;;;9.23;8.02;;;23.00;99.90;;;;;;5073607;28;20173;-87
2022/06/26 08:24:01;;;;;;;10.68;7.60;;;22.80;99.90;;;;;;5073438;28;20225;-87
2022/06/26 08:26:27;;;;;;;10.88;7.53;;;23.00;99.90;;;;;;5073879;28;20184;-86
2022/06/26 08:28:52;;;;;;;10.32;7.78;;;23.00;99.90;;;;;;5072583;28;20169;-87
2022/06/26 08:31:18;;;;;;;9.57;7.40;;;23.10;99.90;;;;;;5072395;28;20652;-86
2022/06/26 08:33:43;;;;;;;8.48;7.63;;;23.20;99.90;;;;;;5073570;28;20203;-86
2022/06/26 08:36:09;;;;;;;11.80;7.82;;;23.10;99.90;;;;;;5073414;28;20180;-87
2022/06/26 08:38:35;;;;;;;9.48;7.78;;;23.00;99.90;;;;;;5073350;28;20176;-87
2022/06/26 08:41:02;;;;;;;8.82;7.28;;;23.90;99.90;;;;;;5072770;28;20204;-87
2022/06/26 08:43:28;;;;;;;8.27;6.18;;;24.20;99.90;;;;;;5072215;28;20168;-86
2022/06/26 08:45:54;;;;;;;8.77;6.28;;;24.60;99.90;;;;;;5073650;28;20198;-87
2022/06/26 08:48:24;;;;;;;6.38;5.78;;;24.30;99.90;;;;;;5071373;28;20612;-86
2022/06/26 08:50:50;;;;;;;10.02;6.82;;;24.50;99.90;;;;;;5072787;28;20180;-87
2022/06/26 08:53:16;;;;;;;7.38;5.90;;;24.40;99.90;;;;;;5073610;28;20200;-87
2022/06/26 08:55:43;;;;;;;6.30;5.70;;;24.90;99.90;;;;;;5074433;28;20168;-87
2022/06/26 08:58:09;;;;;;;9.90;6.75;;;24.90;99.90;;;;;;5072693;28;20199;-86
2022/06/26 09:00:34;;;;;;;9.30;6.93;;;24.20;99.90;;;;;;5076961;28;20193;-87
2022/06/26 09:03:00;;;;;;;9.93;7.28;;;24.50;99.90;;;;;;5075943;28;20588;-87
2022/06/26 09:05:25;;;;;;;9.38;7.35;;;24.50;99.90;;;;;;5075840;28;20700;-86
2022/06/26 09:07:53;;;;;;;7.72;6.30;;;24.00;99.90;;;;;;5074105;28;20199;-87
2022/06/26 09:10:20;;;;;;;6.93;6.13;;;23.80;99.90;;;;;;5073278;28;20172;-87
2022/06/26 09:12:52;;;;;;;6.60;5.90;;;24.40;99.90;;;;;;5076639;28;20256;-86
2022/06/26 09:15:20;;;;;;;5.22;4.65;;;25.40;99.90;;;;;;5074823;28;20539;-87
2022/06/26 09:17:55;;;;;;;6.15;4.72;;;25.50;99.90;;;;;;5077523;28;20223;-87
2022/06/26 09:20:21;;;;;;;6.38;4.00;;;25.60;99.90;;;;;;5075428;28;20203;-87
2022/06/26 09:22:54;;;;;;;4.55;4.10;;;25.70;99.90;;;;;;5075380;28;20165;-87
2022/06/26 09:25:21;;;;;;;6.70;4.95;;;25.60;99.20;;;;;;5074363;28;20573;-87
2022/06/26 09:27:46;;;;;;;5.10;4.60;;;25.00;99.10;;;;;;5074728;28;20213;-87
2022/06/26 09:30:12;;;;;;;5.03;4.55;;;25.20;98.50;;;;;;5073756;28;20310;-87
2022/06/26 09:32:37;;;;;;;4.82;4.38;;;25.10;99.30;;;;;;5073506;28;20546;-87
2022/06/26 09:35:03;;;;;;;4.88;4.45;;;24.90;99.50;;;;;;5074997;28;20195;-86
2022/06/26 09:37:36;;;;;;;4.85;4.50;;;25.40;98.60;;;;;;5075594;28;20238;-87
2022/06/26 09:40:03;;;;;;;4.35;3.00;;;25.60;97.40;;;;;;5073398;28;20201;-87
2022/06/26 09:42:33;;;;;;;2.83;2.63;;;24.70;97.70;;;;;;5073173;28;20264;-87
2022/06/26 09:45:01;;;;;;;7.78;2.45;;;24.90;98.10;;;;;;5073570;28;20168;-86
2022/06/26 09:47:29;;;;;;;2.85;2.47;;;24.60;97.70;;;;;;5072416;28;20215;-87
2022/06/26 09:49:58;;;;;;;4.30;2.58;;;24.30;97.80;;;;;;5074710;28;20165;-87
2022/06/26 09:52:27;;;;;;;2.67;2.47;;;24.50;98.40;;;;;;5074497;28;20176;-87
2022/06/26 09:54:55;;;;;;;2.95;2.47;;;24.90;98.10;;;;;;5076152;28;20234;-87
2022/06/26 09:57:20;;;;;;;3.72;2.28;;;25.70;96.70;;;;;;5073334;28;20192;-87
2022/06/26 09:59:47;;;;;;;2.55;2.35;;;26.20;95.70;;;;;;5074804;28;20602;-87
2022/06/26 10:07:49;;;;;;;2.47;2.28;;;26.90;94.30;;;;;;5077262;28;20199;-87
2022/06/26 10:10:17;;;;;;;3.00;2.10;;;26.60;95.10;;;;;;5074876;28;20594;-87
2022/06/26 10:12:46;;;;;;;2.92;2.40;;;26.40;94.80;;;;;;5073322;28;20169;-87
2022/06/26 10:15:13;;;;;;;2.85;2.47;;;26.60;95.00;;;;;;5074148;28;20328;-87
2022/06/26 10:18:03;;;;;;;2.72;2.33;;;26.80;94.50;;;;;;5074369;28;20192;-87
2022/06/26 10:20:29;;;;;;;3.75;2.85;;;26.60;94.60;;;;;;5074556;28;20206;-87
2022/06/26 10:22:55;;;;;;;2.42;2.20;;;26.00;95.10;;;;;;5074887;28;20637;-87
2022/06/26 10:25:31;;;;;;;3.17;2.08;;;26.40;95.50;;;;;;5073054;28;20210;-87
2022/06/26 10:27:57;;;;;;;5.43;2.33;;;26.00;93.70;;;;;;5074087;28;20676;-87
2022/06/26 10:30:25;;;;;;;2.75;2.05;;;25.60;93.40;;;;;;5070836;28;20255;-87
2022/06/26 10:33:10;;;;;;;2.10;2.00;;;25.80;94.20;;;;;;5071262;28;20218;-87
2022/06/26 10:35:38;;;;;;;3.83;2.03;;;25.40;93.50;;;;;;5072694;28;20652;-87
2022/06/26 10:38:26;;;;;;;3.67;2.03;;;25.50;93.50;;;;;;5071636;28;20753;-87
2022/06/26 10:44:02;;;;;;;3.55;2.00;;;25.40;94.70;;;;;;5072895;28;20215;-87
2022/06/26 10:46:39;;;;;;;2.60;2.22;;;25.70;94.60;;;;;;5075796;28;20272;-87
2022/06/26 10:49:07;;;;;;;3.63;2.70;;;25.90;94.20;;;;;;5075707;28;20161;-89
2022/06/26 10:51:33;;;;;;;2.28;2.08;;;27.40;94.40;;;;;;5077277;28;20515;-90
2022/06/26 10:54:01;;;;;;;2.97;2.58;;;26.60;93.30;;;;;;5076804;28;20165;-90
2022/06/26 10:56:27;;;;;;;3.72;2.03;;;26.00;94.40;;;;;;5076175;28;20200;-90
2022/06/26 10:59:01;;;;;;;2.00;1.85;;;25.90;94.20;;;;;;5076203;28;20644;-89
2022/06/26 11:01:28;;;;;;;3.17;2.00;;;25.60;94.90;;;;;;5075464;28;20195;-89
2022/06/26 11:03:53;;;;;;;5.10;2.25;;;25.60;94.60;;;;;;5076486;28;20184;-89
2022/06/26 11:06:19;;;;;;;2.60;1.90;;;25.60;94.60;;;;;;5076649;28;20172;-90
2022/06/26 11:08:47;;;;;;;1.60;1.55;;;25.30;94.10;;;;;;5076202;28;20661;-87
2022/06/26 11:11:17;;;;;;;21.45;4.35;;;25.20;93.80;;;;;;5069993;28;20177;-89
2022/06/26 11:14:01;;;;;;;6.47;2.40;;;26.20;94.20;;;;;;5082874;28;20173;-89
2022/06/26 11:16:35;;;;;;;4.55;2.38;;;26.00;92.90;;;;;;5091617;28;20203;-88
2022/06/26 11:19:03;;;;;;;5.03;1.88;;;25.90;93.70;;;;;;5077761;28;20229;-88
2022/06/26 11:21:30;;;;;;;8.10;2.58;;;25.30;92.60;;;;;;5075903;28;20201;-88
2022/06/26 11:23:56;;;;;;;3.65;2.20;;;25.40;93.20;;;;;;5073025;28;20204;-89
2022/06/26 11:26:22;;;;;;;6.65;2.13;;;25.60;92.90;;;;;;5074049;28;20203;-89
2022/06/26 11:29:03;;;;;;;13.07;2.97;;;25.80;93.60;;;;;;5075615;28;20644;-89
2022/06/26 11:31:31;;;;;;;2.33;1.80;;;26.50;92.60;;;;;;5073999;28;20694;-90
2022/06/26 11:34:11;;;;;;;4.10;1.70;;;25.80;92.70;;;;;;5077202;28;20235;-90
2022/06/26 11:36:47;;;;;;;2.92;1.98;;;25.30;93.50;;;;;;5075015;28;20288;-90
2022/06/26 11:39:12;;;;;;;4.38;1.83;;;25.70;93.70;;;;;;5074292;28;20259;-91
2022/06/26 11:41:39;;;;;;;2.80;2.00;;;26.40;92.60;;;;;;5078636;28;20224;-91
2022/06/26 11:44:05;;;;;;;2.75;1.50;;;27.00;92.40;;;;;;5077717;28;20164;-90
2022/06/26 11:46:30;;;;;;;2.70;1.90;;;27.30;92.40;;;;;;5075101;28;20200;-91
2022/06/26 11:48:56;;;;;;;3.65;2.13;;;26.80;91.50;;;;;;5075396;28;20200;-90
2022/06/26 11:51:22;;;;;;;1.95;1.85;;;26.70;92.40;;;;;;5072757;28;20185;-90
2022/06/26 11:53:50;;;;;;;3.80;1.92;;;26.20;92.50;;;;;;5074137;28;20260;-89
2022/06/26 11:56:24;;;;;;;4.28;1.65;;;26.20;93.00;;;;;;5074182;28;20176;-89
2022/06/26 11:58:52;;;;;;;5.57;1.85;;;26.80;92.80;;;;;;5074947;28;20180;-90
2022/06/26 12:01:19;;;;;;;2.85;1.50;;;26.90;92.40;;;;;;5085238;28;20200;-90
2022/06/26 12:03:49;;;;;;;2.22;1.70;;;26.80;92.10;;;;;;5081324;28;20161;-90
2022/06/26 12:06:37;;;;;;;2.22;1.65;;;26.30;92.20;;;;;;5074616;28;20165;-89
2022/06/26 12:09:26;;;;;;;1.60;1.50;;;26.60;92.60;;;;;;5074800;28;20532;-89
2022/06/26 12:11:56;;;;;;;2.75;1.77;;;26.70;92.50;;;;;;5070517;28;20710;-88
2022/06/26 12:14:25;;;;;;;2.83;1.50;;;27.50;91.70;;;;;;5073248;28;20218;-89
2022/06/26 12:16:56;;;;;;;1.88;1.77;;;26.90;91.50;;;;;;5074605;28;20180;-90
2022/06/26 12:19:23;;;;;;;1.60;1.50;;;26.70;91.50;;;;;;5074269;28;20222;-89
2022/06/26 12:21:53;;;;;;;2.70;1.73;;;26.80;92.40;;;;;;5075473;28;20227;-90
2022/06/26 12:24:20;;;;;;;5.47;1.63;;;26.30;91.90;;;;;;5074844;28;20223;-88
2022/06/26 12:26:46;;;;;;;1.90;1.50;;;26.40;91.90;;;;;;5074053;28;20188;-90
2022/06/26 12:29:14;;;;;;;2.58;1.70;;;26.10;92.10;;;;;;5075259;28;20625;-89
2022/06/26 12:31:42;;;;;;;2.38;1.77;;;25.70;92.00;;;;;;5074920;28;20197;-89
2022/06/26 12:34:08;;;;;;;3.40;1.85;;;25.70;91.90;;;;;;5075407;28;20177;-89
2022/06/26 12:36:35;;;;;;;3.70;1.40;;;25.60;92.30;;;;;;5078695;28;20200;-88
2022/06/26 12:39:02;;;;;;;2.58;1.65;;;25.60;92.20;;;;;;5075585;28;20172;-89
2022/06/26 12:41:28;;;;;;;1.48;1.38;;;25.20;92.30;;;;;;5076821;28;20204;-91
2022/06/26 12:43:55;;;;;;;2.03;1.40;;;25.20;92.70;;;;;;5074319;28;20173;-88
2022/06/26 12:46:22;;;;;;;3.53;1.50;;;25.40;92.30;;;;;;5077904;28;20302;-88
2022/06/26 12:48:48;;;;;;;1.35;1.33;;;25.40;91.80;;;;;;5074578;28;20204;-88
2022/06/26 12:51:15;;;;;;;3.30;1.35;;;25.30;92.60;;;;;;5077090;28;20172;-93
2022/06/26 12:53:42;;;;;;;2.38;1.50;;;25.00;91.40;;;;;;5075821;28;20176;-89
2022/06/26 12:56:09;;;;;;;2.15;1.58;;;25.10;93.10;;;;;;5073203;28;20223;-87
2022/06/26 12:58:35;;;;;;;1.65;1.52;;;24.60;92.60;;;;;;5072960;28;20192;-89